sensor_id;sensor_type;location;lat;lon;timestamp;pressure;altitude;pressure_sealevel;temperature;humidity
78488;BME280;67885;49.758;9.582;2023-07-24T00:01:27;98447.91;;;25.32;39.41
78488;BME280;67885;49.758;9.582;2023-07-24T00:03:53;98439.44;;;25.28;40.01
78488;BME280;67885;49.758;9.582;2023-07-24T00:06:22;98431.78;;;25.25;39.85
78488;BME280;67885;49.758;9.582;2023-07-24T00:08:49;98406.69;;;25.06;40.01
78488;BME280;67885;49.758;9.582;2023-07-24T00:11:16;98435.53;;;25.24;40.45
78488;BME280;67885;49.758;9.582;2023-07-24T00:13:42;98403.03;;;25.12;39.98
78488;BME280;67885;49.758;9.582;2023-07-24T00:16:09;98411.63;;;25.21;39.80
78488;BME280;67885;49.758;9.582;2023-07-24T00:18:36;98404.56;;;25.20;39.54
78488;BME280;67885;49.758;9.582;2023-07-24T00:21:03;98412.94;;;25.18;39.63
78488;BME280;67885;49.758;9.582;2023-07-24T00:23:31;98407.75;;;25.05;39.75
78488;BME280;67885;49.758;9.582;2023-07-24T00:25:57;98415.41;;;25.08;39.71
78488;BME280;67885;49.758;9.582;2023-07-24T00:28:24;98407.06;;;24.98;39.36
78488;BME280;67885;49.758;9.582;2023-07-24T00:30:50;98410.00;;;24.96;40.79
78488;BME280;67885;49.758;9.582;2023-07-24T00:33:17;98412.00;;;24.89;40.55
78488;BME280;67885;49.758;9.582;2023-07-24T00:35:44;98408.00;;;24.80;41.34
78488;BME280;67885;49.758;9.582;2023-07-24T00:38:10;98416.94;;;24.68;41.77
78488;BME280;67885;49.758;9.582;2023-07-24T00:40:38;98412.09;;;24.58;41.61
78488;BME280;67885;49.758;9.582;2023-07-24T00:43:05;98411.72;;;24.55;41.71
78488;BME280;67885;49.758;9.582;2023-07-24T00:45:32;98409.13;;;24.48;41.29
78488;BME280;67885;49.758;9.582;2023-07-24T00:47:59;98409.59;;;24.45;42.02
78488;BME280;67885;49.758;9.582;2023-07-24T00:50:27;98407.34;;;24.42;40.82
78488;BME280;67885;49.758;9.582;2023-07-24T00:52:55;98416.16;;;24.37;41.08
78488;BME280;67885;49.758;9.582;2023-07-24T00:55:22;98423.94;;;24.34;40.89
78488;BME280;67885;49.758;9.582;2023-07-24T00:57:51;98420.38;;;24.33;41.19
78488;BME280;67885;49.758;9.582;2023-07-24T01:00:18;98414.38;;;24.31;41.83
78488;BME280;67885;49.758;9.582;2023-07-24T01:02:45;98412.59;;;24.25;41.50
78488;BME280;67885;49.758;9.582;2023-07-24T01:05:13;98409.75;;;24.20;40.66
78488;BME280;67885;49.758;9.582;2023-07-24T01:07:40;98413.78;;;24.17;41.71
78488;BME280;67885;49.758;9.582;2023-07-24T01:10:07;98412.34;;;24.15;41.54
78488;BME280;67885;49.758;9.582;2023-07-24T01:12:39;98408.00;;;24.14;41.63
78488;BME280;67885;49.758;9.582;2023-07-24T01:15:14;98391.72;;;24.02;41.59
78488;BME280;67885;49.758;9.582;2023-07-24T01:17:48;98410.06;;;24.00;41.28
78488;BME280;67885;49.758;9.582;2023-07-24T01:20:17;98404.66;;;24.00;41.75
78488;BME280;67885;49.758;9.582;2023-07-24T01:23:00;98408.19;;;24.00;42.36
78488;BME280;67885;49.758;9.582;2023-07-24T01:25:33;98399.25;;;24.00;41.82
78488;BME280;67885;49.758;9.582;2023-07-24T01:28:06;98395.47;;;24.01;41.16
78488;BME280;67885;49.758;9.582;2023-07-24T01:30:33;98387.16;;;24.02;42.22
78488;BME280;67885;49.758;9.582;2023-07-24T01:33:00;98387.16;;;24.02;41.78
78488;BME280;67885;49.758;9.582;2023-07-24T01:35:29;98380.09;;;24.01;41.59
78488;BME280;67885;49.758;9.582;2023-07-24T01:37:57;98386.31;;;24.02;42.13
78488;BME280;67885;49.758;9.582;2023-07-24T01:40:25;98370.53;;;23.99;43.05
78488;BME280;67885;49.758;9.582;2023-07-24T01:42:51;98375.97;;;23.99;42.43
78488;BME280;67885;49.758;9.582;2023-07-24T01:45:19;98362.44;;;23.99;42.46
78488;BME280;67885;49.758;9.582;2023-07-24T01:47:46;98358.88;;;23.98;41.48
78488;BME280;67885;49.758;9.582;2023-07-24T01:50:13;98361.72;;;23.92;41.96
78488;BME280;67885;49.758;9.582;2023-07-24T01:52:39;98361.47;;;23.93;42.67
78488;BME280;67885;49.758;9.582;2023-07-24T01:55:06;98364.63;;;23.90;42.23
78488;BME280;67885;49.758;9.582;2023-07-24T01:57:34;98369.28;;;23.83;42.59
78488;BME280;67885;49.758;9.582;2023-07-24T02:00:01;98366.66;;;23.76;42.71
78488;BME280;67885;49.758;9.582;2023-07-24T02:02:28;98375.00;;;23.74;42.44
78488;BME280;67885;49.758;9.582;2023-07-24T02:04:55;98369.59;;;23.74;42.24
78488;BME280;67885;49.758;9.582;2023-07-24T02:07:22;98341.66;;;23.50;42.26
78488;BME280;67885;49.758;9.582;2023-07-24T02:09:48;98366.41;;;23.66;42.25
78488;BME280;67885;49.758;9.582;2023-07-24T02:12:15;98373.19;;;23.56;42.33
78488;BME280;67885;49.758;9.582;2023-07-24T02:14:42;98362.22;;;23.51;42.11
78488;BME280;67885;49.758;9.582;2023-07-24T02:17:08;98363.34;;;23.44;42.66
78488;BME280;67885;49.758;9.582;2023-07-24T02:19:36;98374.25;;;23.37;42.52
78488;BME280;67885;49.758;9.582;2023-07-24T02:22:03;98372.47;;;23.31;43.11
78488;BME280;67885;49.758;9.582;2023-07-24T02:24:30;98369.38;;;23.27;42.97
78488;BME280;67885;49.758;9.582;2023-07-24T02:26:56;98356.75;;;23.21;43.75
78488;BME280;67885;49.758;9.582;2023-07-24T02:29:23;98362.47;;;23.13;43.76
78488;BME280;67885;49.758;9.582;2023-07-24T02:31:50;98333.03;;;22.86;43.77
78488;BME280;67885;49.758;9.582;2023-07-24T02:34:16;98349.25;;;22.86;44.54
78488;BME280;67885;49.758;9.582;2023-07-24T02:36:44;98346.44;;;22.74;45.15
78488;BME280;67885;49.758;9.582;2023-07-24T02:39:11;98346.91;;;22.71;46.58
78488;BME280;67885;49.758;9.582;2023-07-24T02:41:37;98345.03;;;22.71;46.47
78488;BME280;67885;49.758;9.582;2023-07-24T02:44:04;98338.59;;;22.72;46.76
78488;BME280;67885;49.758;9.582;2023-07-24T02:46:31;98344.34;;;22.76;46.15
78488;BME280;67885;49.758;9.582;2023-07-24T02:48:57;98341.22;;;22.79;45.77
78488;BME280;67885;49.758;9.582;2023-07-24T02:51:24;98339.94;;;22.82;46.12
78488;BME280;67885;49.758;9.582;2023-07-24T02:53:54;98336.56;;;22.86;45.72
78488;BME280;67885;49.758;9.582;2023-07-24T02:56:21;98324.25;;;22.90;45.26
78488;BME280;67885;49.758;9.582;2023-07-24T02:58:48;98322.75;;;22.95;45.04
78488;BME280;67885;49.758;9.582;2023-07-24T03:01:14;98319.03;;;22.96;45.02
78488;BME280;67885;49.758;9.582;2023-07-24T03:03:41;98313.38;;;22.97;44.35
78488;BME280;67885;49.758;9.582;2023-07-24T03:06:08;98319.16;;;23.01;44.22
78488;BME280;67885;49.758;9.582;2023-07-24T03:08:35;98315.63;;;23.00;44.88
78488;BME280;67885;49.758;9.582;2023-07-24T03:11:05;98307.09;;;22.85;44.52
78488;BME280;67885;49.758;9.582;2023-07-24T03:13:32;98311.66;;;23.03;44.19
78488;BME280;67885;49.758;9.582;2023-07-24T03:15:59;98312.50;;;23.03;44.39
78488;BME280;67885;49.758;9.582;2023-07-24T03:18:25;98186.81;;;22.33;44.69
78488;BME280;67885;49.758;9.582;2023-07-24T03:20:52;98308.81;;;23.16;44.61
78488;BME280;67885;49.758;9.582;2023-07-24T03:23:18;98293.16;;;23.25;44.37
78488;BME280;67885;49.758;9.582;2023-07-24T03:25:45;98287.44;;;23.33;44.48
78488;BME280;67885;49.758;9.582;2023-07-24T03:28:13;98292.75;;;23.40;43.57
78488;BME280;67885;49.758;9.582;2023-07-24T03:30:40;98296.84;;;23.43;44.55
78488;BME280;67885;49.758;9.582;2023-07-24T03:33:06;98299.91;;;23.46;43.76
78488;BME280;67885;49.758;9.582;2023-07-24T03:35:33;98305.31;;;23.46;43.86
78488;BME280;67885;49.758;9.582;2023-07-24T03:38:00;98305.56;;;23.45;43.21
78488;BME280;67885;49.758;9.582;2023-07-24T03:40:27;98299.78;;;23.41;43.40
78488;BME280;67885;49.758;9.582;2023-07-24T03:42:53;98296.50;;;23.39;43.82
78488;BME280;67885;49.758;9.582;2023-07-24T03:45:21;98284.03;;;23.38;44.31
78488;BME280;67885;49.758;9.582;2023-07-24T03:47:48;98283.66;;;23.34;44.10
78488;BME280;67885;49.758;9.582;2023-07-24T03:50:15;98281.19;;;23.33;44.87
78488;BME280;67885;49.758;9.582;2023-07-24T03:52:41;98269.34;;;23.15;44.78
78488;BME280;67885;49.758;9.582;2023-07-24T03:55:08;98293.72;;;23.27;45.03
78488;BME280;67885;49.758;9.582;2023-07-24T03:57:35;98290.06;;;23.21;44.83
78488;BME280;67885;49.758;9.582;2023-07-24T04:00:02;98290.16;;;23.15;45.01
78488;BME280;67885;49.758;9.582;2023-07-24T04:02:31;98297.25;;;23.09;44.54
78488;BME280;67885;49.758;9.582;2023-07-24T04:04:58;98295.00;;;23.06;45.35
78488;BME280;67885;49.758;9.582;2023-07-24T04:07:24;98295.22;;;23.04;44.92
78488;BME280;67885;49.758;9.582;2023-07-24T04:09:51;98291.31;;;23.00;45.31
78488;BME280;67885;49.758;9.582;2023-07-24T04:12:17;98296.97;;;22.99;45.57
78488;BME280;67885;49.758;9.582;2023-07-24T04:14:44;98303.63;;;22.96;45.59
78488;BME280;67885;49.758;9.582;2023-07-24T04:17:11;98302.44;;;22.92;45.83
78488;BME280;67885;49.758;9.582;2023-07-24T04:19:38;98299.22;;;22.83;46.73
78488;BME280;67885;49.758;9.582;2023-07-24T04:22:05;98290.22;;;22.71;47.14
78488;BME280;67885;49.758;9.582;2023-07-24T04:24:32;98293.88;;;22.58;46.21
78488;BME280;67885;49.758;9.582;2023-07-24T04:26:58;98296.28;;;22.48;47.16
78488;BME280;67885;49.758;9.582;2023-07-24T04:29:25;98284.47;;;22.42;46.80
78488;BME280;67885;49.758;9.582;2023-07-24T04:31:51;98287.72;;;22.51;47.14
78488;BME280;67885;49.758;9.582;2023-07-24T04:34:18;98290.44;;;22.51;47.19
78488;BME280;67885;49.758;9.582;2023-07-24T04:36:46;98284.19;;;22.50;47.24
78488;BME280;67885;49.758;9.582;2023-07-24T04:39:13;98239.34;;;22.05;47.63
78488;BME280;67885;49.758;9.582;2023-07-24T04:41:40;98282.56;;;22.49;47.52
78488;BME280;67885;49.758;9.582;2023-07-24T04:44:06;98285.03;;;22.51;47.11
78488;BME280;67885;49.758;9.582;2023-07-24T04:46:33;98289.97;;;22.54;47.30
78488;BME280;67885;49.758;9.582;2023-07-24T04:48:59;98293.72;;;22.53;48.63
78488;BME280;67885;49.758;9.582;2023-07-24T04:51:26;98269.28;;;22.48;49.03
78488;BME280;67885;49.758;9.582;2023-07-24T04:53:54;98280.53;;;22.63;49.09
78488;BME280;67885;49.758;9.582;2023-07-24T04:56:21;98272.59;;;22.68;48.86
78488;BME280;67885;49.758;9.582;2023-07-24T04:58:48;98269.22;;;22.73;49.05
78488;BME280;67885;49.758;9.582;2023-07-24T05:01:14;98259.03;;;22.75;49.20
78488;BME280;67885;49.758;9.582;2023-07-24T05:03:41;98249.28;;;22.74;48.33
78488;BME280;67885;49.758;9.582;2023-07-24T05:06:07;98257.75;;;22.78;48.25
78488;BME280;67885;49.758;9.582;2023-07-24T05:08:34;98256.84;;;22.84;49.53
78488;BME280;67885;49.758;9.582;2023-07-24T05:11:02;98261.56;;;22.88;48.81
78488;BME280;67885;49.758;9.582;2023-07-24T05:13:28;98257.81;;;22.89;49.85
78488;BME280;67885;49.758;9.582;2023-07-24T05:15:55;98254.88;;;22.91;49.08
78488;BME280;67885;49.758;9.582;2023-07-24T05:18:21;98258.41;;;22.92;49.34
78488;BME280;67885;49.758;9.582;2023-07-24T05:20:48;98249.94;;;22.88;49.25
78488;BME280;67885;49.758;9.582;2023-07-24T05:23:16;98245.72;;;22.92;48.98
78488;BME280;67885;49.758;9.582;2023-07-24T05:25:43;98240.72;;;22.96;48.98
78488;BME280;67885;49.758;9.582;2023-07-24T05:28:11;98243.09;;;23.04;49.13
78488;BME280;67885;49.758;9.582;2023-07-24T05:30:37;98242.19;;;23.10;48.73
78488;BME280;67885;49.758;9.582;2023-07-24T05:33:04;98234.84;;;23.17;48.69
78488;BME280;67885;49.758;9.582;2023-07-24T05:35:31;98228.53;;;23.23;48.53
78488;BME280;67885;49.758;9.582;2023-07-24T05:37:57;98231.81;;;23.26;48.64
78488;BME280;67885;49.758;9.582;2023-07-24T05:40:24;98237.59;;;23.29;48.66
78488;BME280;67885;49.758;9.582;2023-07-24T05:42:50;98236.09;;;23.33;48.70
78488;BME280;67885;49.758;9.582;2023-07-24T05:45:18;98230.69;;;23.33;48.84
78488;BME280;67885;49.758;9.582;2023-07-24T05:47:45;98235.16;;;23.39;48.10
78488;BME280;67885;49.758;9.582;2023-07-24T05:50:12;98244.91;;;23.40;48.71
78488;BME280;67885;49.758;9.582;2023-07-24T05:52:39;98258.44;;;23.40;48.38
78488;BME280;67885;49.758;9.582;2023-07-24T05:55:07;98251.75;;;23.43;48.28
78488;BME280;67885;49.758;9.582;2023-07-24T05:57:34;98246.09;;;23.45;47.67
78488;BME280;67885;49.758;9.582;2023-07-24T06:00:00;98250.22;;;23.47;47.32
78488;BME280;67885;49.758;9.582;2023-07-24T06:02:28;98264.13;;;23.51;48.20
78488;BME280;67885;49.758;9.582;2023-07-24T06:04:55;98258.47;;;23.52;47.17
78488;BME280;67885;49.758;9.582;2023-07-24T06:07:22;98246.38;;;23.55;48.19
78488;BME280;67885;49.758;9.582;2023-07-24T06:09:49;98240.97;;;23.55;46.99
78488;BME280;67885;49.758;9.582;2023-07-24T06:12:15;98240.00;;;23.49;48.33
78488;BME280;67885;49.758;9.582;2023-07-24T06:14:42;98245.16;;;23.39;48.69
78488;BME280;67885;49.758;9.582;2023-07-24T06:17:08;98246.53;;;23.30;48.71
78488;BME280;67885;49.758;9.582;2023-07-24T06:19:36;98254.94;;;23.21;49.71
78488;BME280;67885;49.758;9.582;2023-07-24T06:22:03;98265.22;;;23.13;49.58
78488;BME280;67885;49.758;9.582;2023-07-24T06:24:30;98260.25;;;23.10;49.19
78488;BME280;67885;49.758;9.582;2023-07-24T06:26:56;98257.31;;;23.11;49.09
78488;BME280;67885;49.758;9.582;2023-07-24T06:29:23;98260.81;;;23.18;49.21
78488;BME280;67885;49.758;9.582;2023-07-24T06:31:51;98254.72;;;23.23;49.58
78488;BME280;67885;49.758;9.582;2023-07-24T06:34:17;98243.13;;;23.34;49.86
78488;BME280;67885;49.758;9.582;2023-07-24T06:36:45;98230.94;;;23.44;49.64
78488;BME280;67885;49.758;9.582;2023-07-24T06:39:12;98237.66;;;23.53;49.59
78488;BME280;67885;49.758;9.582;2023-07-24T06:41:38;98237.81;;;23.58;49.20
78488;BME280;67885;49.758;9.582;2023-07-24T06:44:05;98239.00;;;23.62;49.47
78488;BME280;67885;49.758;9.582;2023-07-24T06:46:32;98243.00;;;23.71;48.82
78488;BME280;67885;49.758;9.582;2023-07-24T06:48:58;98254.78;;;23.77;49.31
78488;BME280;67885;49.758;9.582;2023-07-24T06:51:25;98252.19;;;23.82;49.47
78488;BME280;67885;49.758;9.582;2023-07-24T06:53:53;98244.19;;;23.87;50.13
78488;BME280;67885;49.758;9.582;2023-07-24T06:56:20;98243.78;;;23.90;49.42
78488;BME280;67885;49.758;9.582;2023-07-24T06:58:46;98239.56;;;23.95;49.49
78488;BME280;67885;49.758;9.582;2023-07-24T07:01:13;98238.59;;;24.01;49.66
78488;BME280;67885;49.758;9.582;2023-07-24T07:03:39;98238.03;;;24.11;49.20
78488;BME280;67885;49.758;9.582;2023-07-24T07:06:06;98232.50;;;24.17;49.04
78488;BME280;67885;49.758;9.582;2023-07-24T07:08:34;98227.19;;;24.22;48.81
78488;BME280;67885;49.758;9.582;2023-07-24T07:11:02;98199.91;;;24.00;49.03
78488;BME280;67885;49.758;9.582;2023-07-24T07:13:29;98224.84;;;24.26;48.79
78488;BME280;67885;49.758;9.582;2023-07-24T07:15:55;98230.94;;;24.33;49.23
78488;BME280;67885;49.758;9.582;2023-07-24T07:18:22;98216.25;;;24.41;48.19
78488;BME280;67885;49.758;9.582;2023-07-24T07:20:50;98183.09;;;24.22;48.37
78488;BME280;67885;49.758;9.582;2023-07-24T07:23:18;98214.59;;;24.64;47.24
78488;BME280;67885;49.758;9.582;2023-07-24T07:25:45;98212.56;;;24.71;47.40
78488;BME280;67885;49.758;9.582;2023-07-24T07:28:13;98205.97;;;24.79;47.68
78488;BME280;67885;49.758;9.582;2023-07-24T07:30:40;98211.56;;;24.89;46.57
78488;BME280;67885;49.758;9.582;2023-07-24T07:33:07;98216.13;;;25.00;47.27
78488;BME280;67885;49.758;9.582;2023-07-24T07:35:35;98224.19;;;25.12;46.98
78488;BME280;67885;49.758;9.582;2023-07-24T07:38:03;98190.63;;;25.13;46.64
78488;BME280;67885;49.758;9.582;2023-07-24T07:40:30;98166.25;;;25.13;46.32
78488;BME280;67885;49.758;9.582;2023-07-24T07:42:57;98191.56;;;25.48;46.57
78488;BME280;67885;49.758;9.582;2023-07-24T07:45:25;98195.56;;;25.62;45.91
78488;BME280;67885;49.758;9.582;2023-07-24T07:47:51;98197.72;;;25.77;46.68
78488;BME280;67885;49.758;9.582;2023-07-24T07:50:18;98209.28;;;25.89;45.01
78488;BME280;67885;49.758;9.582;2023-07-24T07:52:45;98209.72;;;25.98;45.99
78488;BME280;67885;49.758;9.582;2023-07-24T07:55:15;98210.47;;;26.11;44.80
78488;BME280;67885;49.758;9.582;2023-07-24T07:57:42;98205.03;;;26.11;45.08
78488;BME280;67885;49.758;9.582;2023-07-24T08:00:09;98201.53;;;26.10;44.66
78488;BME280;67885;49.758;9.582;2023-07-24T08:02:37;98196.09;;;26.10;45.37
78488;BME280;67885;49.758;9.582;2023-07-24T08:05:06;98202.41;;;26.16;45.04
78488;BME280;67885;49.758;9.582;2023-07-24T08:07:33;98197.63;;;26.23;45.15
78488;BME280;67885;49.758;9.582;2023-07-24T08:09:59;98202.31;;;26.28;44.42
78488;BME280;67885;49.758;9.582;2023-07-24T08:12:26;98212.16;;;26.34;44.87
78488;BME280;67885;49.758;9.582;2023-07-24T08:14:52;98215.50;;;26.41;44.74
78488;BME280;67885;49.758;9.582;2023-07-24T08:17:19;98210.72;;;26.48;43.65
78488;BME280;67885;49.758;9.582;2023-07-24T08:19:47;98214.59;;;26.52;43.36
78488;BME280;67885;49.758;9.582;2023-07-24T08:22:14;98220.50;;;26.49;42.78
78488;BME280;67885;49.758;9.582;2023-07-24T08:24:40;98094.38;;;25.39;42.96
78488;BME280;67885;49.758;9.582;2023-07-24T08:27:07;98229.22;;;26.51;42.49
78488;BME280;67885;49.758;9.582;2023-07-24T08:29:34;98234.84;;;26.45;42.74
78488;BME280;67885;49.758;9.582;2023-07-24T08:32:01;98231.50;;;26.37;42.64
78488;BME280;67885;49.758;9.582;2023-07-24T08:34:28;98235.78;;;26.33;43.04
78488;BME280;67885;49.758;9.582;2023-07-24T08:36:56;98239.56;;;26.32;43.09
78488;BME280;67885;49.758;9.582;2023-07-24T08:39:23;98237.09;;;26.31;43.24
78488;BME280;67885;49.758;9.582;2023-07-24T08:41:50;98235.53;;;26.35;42.88
78488;BME280;67885;49.758;9.582;2023-07-24T08:44:17;98239.94;;;26.41;42.86
78488;BME280;67885;49.758;9.582;2023-07-24T08:46:46;98219.34;;;26.45;41.97
78488;BME280;67885;49.758;9.582;2023-07-24T08:49:15;98214.78;;;26.46;42.02
78488;BME280;67885;49.758;9.582;2023-07-24T08:51:44;98174.00;;;26.23;41.89
78488;BME280;67885;49.758;9.582;2023-07-24T08:54:13;98211.53;;;26.49;42.45
78488;BME280;67885;49.758;9.582;2023-07-24T08:56:40;98209.34;;;26.46;41.35
78488;BME280;67885;49.758;9.582;2023-07-24T08:59:12;98205.66;;;26.35;42.35
78488;BME280;67885;49.758;9.582;2023-07-24T09:01:39;98206.72;;;26.34;42.79
78488;BME280;67885;49.758;9.582;2023-07-24T09:04:06;98209.44;;;26.34;42.30
78488;BME280;67885;49.758;9.582;2023-07-24T09:06:33;98212.41;;;26.32;42.83
78488;BME280;67885;49.758;9.582;2023-07-24T09:09:00;98219.16;;;26.30;42.81
78488;BME280;67885;49.758;9.582;2023-07-24T09:11:29;98213.72;;;26.30;42.60
78488;BME280;67885;49.758;9.582;2023-07-24T09:13:56;98214.25;;;26.27;43.00
78488;BME280;67885;49.758;9.582;2023-07-24T09:16:24;98212.75;;;26.19;43.09
78488;BME280;67885;49.758;9.582;2023-07-24T09:18:52;98196.97;;;25.99;43.78
78488;BME280;67885;49.758;9.582;2023-07-24T09:21:29;98193.56;;;26.03;44.30
78488;BME280;67885;49.758;9.582;2023-07-24T09:23:56;98153.75;;;25.75;44.84
78488;BME280;67885;49.758;9.582;2023-07-24T09:26:23;98186.81;;;26.06;44.85
78488;BME280;67885;49.758;9.582;2023-07-24T09:28:54;98187.69;;;26.12;44.76
78488;BME280;67885;49.758;9.582;2023-07-24T09:31:21;98181.94;;;26.08;44.03
78488;BME280;67885;49.758;9.582;2023-07-24T09:33:48;98179.16;;;26.03;44.32
78488;BME280;67885;49.758;9.582;2023-07-24T09:36:14;98168.03;;;26.04;44.00
78488;BME280;67885;49.758;9.582;2023-07-24T09:38:41;98168.50;;;26.01;44.48
78488;BME280;67885;49.758;9.582;2023-07-24T09:41:08;98156.38;;;26.04;44.55
78488;BME280;67885;49.758;9.582;2023-07-24T09:43:35;98144.91;;;26.19;44.71
78488;BME280;67885;49.758;9.582;2023-07-24T09:46:04;98148.72;;;26.40;45.00
78488;BME280;67885;49.758;9.582;2023-07-24T09:48:32;98148.28;;;26.70;45.17
78488;BME280;67885;49.758;9.582;2023-07-24T09:51:00;98131.81;;;27.04;45.48
78488;BME280;67885;49.758;9.582;2023-07-24T09:53:32;98142.47;;;27.38;43.02
78488;BME280;67885;49.758;9.582;2023-07-24T09:56:03;98135.00;;;27.56;42.08
78488;BME280;67885;49.758;9.582;2023-07-24T09:58:33;98131.03;;;27.69;42.13
78488;BME280;67885;49.758;9.582;2023-07-24T10:01:03;98127.00;;;27.82;41.47
78488;BME280;67885;49.758;9.582;2023-07-24T10:03:33;98133.25;;;27.82;41.81
78488;BME280;67885;49.758;9.582;2023-07-24T10:06:00;98139.00;;;27.86;41.81
78488;BME280;67885;49.758;9.582;2023-07-24T10:08:27;98108.19;;;27.75;41.73
78488;BME280;67885;49.758;9.582;2023-07-24T10:10:55;98143.69;;;27.96;41.58
78488;BME280;67885;49.758;9.582;2023-07-24T10:13:22;98140.75;;;27.97;41.72
78488;BME280;67885;49.758;9.582;2023-07-24T10:15:49;98149.72;;;27.98;41.38
78488;BME280;67885;49.758;9.582;2023-07-24T10:18:17;98150.53;;;27.98;41.64
78488;BME280;67885;49.758;9.582;2023-07-24T10:21:00;98155.22;;;28.03;41.79
78488;BME280;67885;49.758;9.582;2023-07-24T10:23:27;98139.69;;;28.03;41.41
78488;BME280;67885;49.758;9.582;2023-07-24T10:25:54;98118.66;;;27.93;41.77
78488;BME280;67885;49.758;9.582;2023-07-24T10:28:30;98137.25;;;28.02;41.68
78488;BME280;67885;49.758;9.582;2023-07-24T10:30:57;98152.50;;;28.03;41.31
78488;BME280;67885;49.758;9.582;2023-07-24T10:33:30;98143.47;;;27.97;41.49
78488;BME280;67885;49.758;9.582;2023-07-24T10:36:04;98149.13;;;27.96;41.88
78488;BME280;67885;49.758;9.582;2023-07-24T10:38:35;98155.97;;;27.98;41.91
78488;BME280;67885;49.758;9.582;2023-07-24T10:41:03;98152.97;;;28.00;42.11
78488;BME280;67885;49.758;9.582;2023-07-24T10:43:40;98152.22;;;28.04;41.72
78488;BME280;67885;49.758;9.582;2023-07-24T10:46:07;98148.66;;;28.04;41.97
78488;BME280;67885;49.758;9.582;2023-07-24T10:48:36;98161.75;;;28.02;42.22
78488;BME280;67885;49.758;9.582;2023-07-24T10:51:07;98151.31;;;27.93;42.55
78488;BME280;67885;49.758;9.582;2023-07-24T10:53:36;98153.50;;;27.97;43.08
78488;BME280;67885;49.758;9.582;2023-07-24T10:56:03;98152.13;;;27.94;42.58
78488;BME280;67885;49.758;9.582;2023-07-24T10:58:30;98147.75;;;27.88;42.96
78488;BME280;67885;49.758;9.582;2023-07-24T11:00:58;98152.63;;;27.86;43.01
78488;BME280;67885;49.758;9.582;2023-07-24T11:03:25;98119.03;;;27.65;43.02
78488;BME280;67885;49.758;9.582;2023-07-24T11:05:54;98141.72;;;27.86;42.83
78488;BME280;67885;49.758;9.582;2023-07-24T11:08:21;98142.81;;;27.85;43.28
78488;BME280;67885;49.758;9.582;2023-07-24T11:10:49;98147.63;;;27.72;43.59
78488;BME280;67885;49.758;9.582;2023-07-24T11:13:16;98132.91;;;27.68;44.30
78488;BME280;67885;49.758;9.582;2023-07-24T11:15:43;98127.47;;;27.68;43.53
78488;BME280;67885;49.758;9.582;2023-07-24T11:18:10;98132.66;;;27.70;43.46
78488;BME280;67885;49.758;9.582;2023-07-24T11:20:43;98136.69;;;27.67;43.19
78488;BME280;67885;49.758;9.582;2023-07-24T11:23:12;98150.56;;;27.66;43.05
78488;BME280;67885;49.758;9.582;2023-07-24T11:25:40;98148.63;;;27.61;43.66
78488;BME280;67885;49.758;9.582;2023-07-24T11:28:09;98139.09;;;27.58;43.61
78488;BME280;67885;49.758;9.582;2023-07-24T11:30:36;98139.69;;;27.61;43.85
78488;BME280;67885;49.758;9.582;2023-07-24T11:33:05;98141.28;;;27.62;43.81
78488;BME280;67885;49.758;9.582;2023-07-24T11:35:33;98143.09;;;27.51;44.37
78488;BME280;67885;49.758;9.582;2023-07-24T11:38:00;98148.00;;;27.49;44.37
78488;BME280;67885;49.758;9.582;2023-07-24T11:40:35;98086.72;;;27.08;44.84
78488;BME280;67885;49.758;9.582;2023-07-24T11:43:03;98134.66;;;27.47;44.99
78488;BME280;67885;49.758;9.582;2023-07-24T11:45:30;98143.09;;;27.46;45.42
78488;BME280;67885;49.758;9.582;2023-07-24T11:47:57;98143.03;;;27.40;45.25
78488;BME280;67885;49.758;9.582;2023-07-24T11:50:23;98091.63;;;27.12;45.08
78488;BME280;67885;49.758;9.582;2023-07-24T11:52:51;98124.06;;;27.46;45.71
78488;BME280;67885;49.758;9.582;2023-07-24T11:55:29;98119.47;;;27.51;45.44
78488;BME280;67885;49.758;9.582;2023-07-24T11:57:59;98114.56;;;27.53;45.39
78488;BME280;67885;49.758;9.582;2023-07-24T12:00:26;98115.59;;;27.42;46.00
78488;BME280;67885;49.758;9.582;2023-07-24T12:02:58;98115.19;;;27.33;46.09
78488;BME280;67885;49.758;9.582;2023-07-24T12:05:25;98117.09;;;27.33;46.27
78488;BME280;67885;49.758;9.582;2023-07-24T12:07:54;98042.50;;;26.86;46.86
78488;BME280;67885;49.758;9.582;2023-07-24T12:10:26;98108.78;;;27.39;45.99
78488;BME280;67885;49.758;9.582;2023-07-24T12:12:54;98018.78;;;26.76;46.08
78488;BME280;67885;49.758;9.582;2023-07-24T12:15:25;98111.47;;;27.39;45.83
78488;BME280;67885;49.758;9.582;2023-07-24T12:17:53;98103.25;;;27.34;46.37
78488;BME280;67885;49.758;9.582;2023-07-24T12:20:20;98101.81;;;27.26;46.58
78488;BME280;67885;49.758;9.582;2023-07-24T12:22:46;98095.03;;;27.29;46.47
78488;BME280;67885;49.758;9.582;2023-07-24T12:25:13;98108.78;;;27.39;46.74
78488;BME280;67885;49.758;9.582;2023-07-24T12:27:40;98088.97;;;27.49;45.86
78488;BME280;67885;49.758;9.582;2023-07-24T12:30:08;98043.13;;;27.31;46.22
78488;BME280;67885;49.758;9.582;2023-07-24T12:32:36;98082.34;;;27.72;45.21
78488;BME280;67885;49.758;9.582;2023-07-24T12:35:03;98044.03;;;27.36;44.93
78488;BME280;67885;49.758;9.582;2023-07-24T12:37:30;98087.88;;;27.88;44.75
78488;BME280;67885;49.758;9.582;2023-07-24T12:39:57;97978.78;;;27.36;45.63
78488;BME280;67885;49.758;9.582;2023-07-24T12:42:23;98070.59;;;28.15;45.52
78488;BME280;67885;49.758;9.582;2023-07-24T12:44:50;98068.75;;;28.31;44.30
78488;BME280;67885;49.758;9.582;2023-07-24T12:47:16;98062.28;;;28.42;44.39
78488;BME280;67885;49.758;9.582;2023-07-24T12:49:44;98054.94;;;28.48;43.92
78488;BME280;67885;49.758;9.582;2023-07-24T12:52:11;98066.97;;;28.57;43.37
78488;BME280;67885;49.758;9.582;2023-07-24T12:54:38;98079.47;;;28.63;43.15
78488;BME280;67885;49.758;9.582;2023-07-24T12:57:05;98071.31;;;28.63;42.77
78488;BME280;67885;49.758;9.582;2023-07-24T12:59:32;98067.25;;;28.66;43.24
78488;BME280;67885;49.758;9.582;2023-07-24T13:01:58;98050.94;;;28.76;42.83